createdAt,value
2023-05-02T00:00:02.278Z,51.90
2023-05-02T00:02:53.571Z,52.69
2023-05-02T00:05:22.361Z,52.87
2023-05-02T00:07:51.880Z,52.81
2023-05-02T00:10:20.086Z,52.95
2023-05-02T00:12:48.446Z,53.09
2023-05-02T00:15:16.670Z,53.83
2023-05-02T00:17:44.983Z,55.85
2023-05-02T00:20:14.179Z,54.94
2023-05-02T00:22:42.401Z,54.25
2023-05-02T00:25:16.120Z,54.29
2023-05-02T00:27:47.107Z,55.10
2023-05-02T00:30:15.440Z,55.12
2023-05-02T00:32:44.463Z,55.69
2023-05-02T00:35:12.968Z,55.83
2023-05-02T00:37:41.324Z,56.18
2023-05-02T00:40:09.998Z,56.37
2023-05-02T00:42:38.589Z,56.49
2023-05-02T00:45:07.247Z,56.49
2023-05-02T00:47:35.888Z,56.42
2023-05-02T00:50:05.637Z,56.74
2023-05-02T00:52:34.214Z,57.71
2023-05-02T00:55:03.396Z,58.25
2023-05-02T00:57:33.301Z,58.65
2023-05-02T01:00:02.512Z,58.83
2023-05-02T01:02:42.708Z,59.04
2023-05-02T01:05:30.371Z,59.23
2023-05-02T01:08:04.721Z,59.27
2023-05-02T01:10:53.256Z,59.49
2023-05-02T01:13:26.799Z,59.59
2023-05-02T01:15:59.036Z,59.85
2023-05-02T01:18:32.813Z,59.84
2023-05-02T01:21:07.947Z,60.10
2023-05-02T01:24:12.768Z,60.48
2023-05-02T01:27:25.440Z,60.32
2023-05-02T01:29:54.684Z,60.19
2023-05-02T01:32:24.097Z,60.01
2023-05-02T01:34:54.415Z,59.76
2023-05-02T01:37:28.561Z,60.00
2023-05-02T01:39:59.356Z,60.40
2023-05-02T01:42:29.608Z,60.48
2023-05-02T01:44:59.408Z,60.90
2023-05-02T01:47:30.415Z,61.41
2023-05-02T01:50:00.752Z,61.77
2023-05-02T01:52:30.792Z,61.84
2023-05-02T01:55:01.950Z,62.18
2023-05-02T01:57:31.625Z,62.25
2023-05-02T02:00:04.409Z,62.86
2023-05-02T02:02:43.940Z,63.19
2023-05-02T02:05:14.264Z,63.27
2023-05-02T02:07:44.216Z,63.48
2023-05-02T02:10:14.640Z,63.81
2023-05-02T02:12:55.934Z,64.18
2023-05-02T02:15:24.302Z,63.87
2023-05-02T02:17:59.080Z,63.67
2023-05-02T02:20:30.394Z,63.74
2023-05-02T02:23:03.488Z,64.49
2023-05-02T02:25:34.071Z,64.69
2023-05-02T02:28:02.466Z,64.81
2023-05-02T02:30:31.002Z,65.49
2023-05-02T02:32:59.265Z,65.96
2023-05-02T02:35:37.573Z,66.36
2023-05-02T02:38:10.056Z,66.73
2023-05-02T02:41:12.383Z,67.35
2023-05-02T02:44:16.255Z,67.87
2023-05-02T02:47:01.772Z,68.70
2023-05-02T02:49:47.785Z,69.36
2023-05-02T02:52:26.335Z,69.78
2023-05-02T02:55:00.919Z,70.27
2023-05-02T02:57:47.642Z,70.52
2023-05-02T03:00:18.729Z,70.86
2023-05-02T03:02:48.274Z,71.35
2023-05-02T03:05:16.996Z,71.59
2023-05-02T03:07:45.443Z,71.83
2023-05-02T03:10:13.785Z,72.07
2023-05-02T03:12:44.336Z,72.08
2023-05-02T03:15:50.973Z,72.32
2023-05-02T03:18:20.026Z,72.74
2023-05-02T03:20:50.410Z,73.21
2023-05-02T03:23:19.189Z,73.77
2023-05-02T03:25:47.682Z,74.04
2023-05-02T03:28:17.168Z,74.69
2023-05-02T03:30:46.948Z,75.07
2023-05-02T03:33:15.492Z,75.56
2023-05-02T03:35:44.965Z,76.07
2023-05-02T03:38:14.176Z,76.30
2023-05-02T03:40:45.122Z,76.53
2023-05-02T03:43:14.586Z,76.75
2023-05-02T03:45:46.102Z,77.05
2023-05-02T03:48:15.645Z,77.23
2023-05-02T03:50:44.077Z,77.44
2023-05-02T03:53:12.370Z,77.69
2023-05-02T03:55:46.126Z,77.81
2023-05-02T03:58:17.055Z,78.03
2023-05-02T04:00:46.364Z,78.16
2023-05-02T04:03:15.125Z,78.27
2023-05-02T04:05:46.568Z,78.56
2023-05-02T04:08:17.723Z,79.01
2023-05-02T04:10:46.892Z,79.28
2023-05-02T04:13:16.465Z,79.63
2023-05-02T04:15:49.052Z,79.72
2023-05-02T04:18:21.071Z,79.45
2023-05-02T04:20:50.826Z,79.12
2023-05-02T04:23:20.703Z,78.97
2023-05-02T04:25:54.605Z,78.44
2023-05-02T04:28:26.386Z,77.95
2023-05-02T04:30:57.934Z,77.87
2023-05-02T04:33:27.004Z,77.36
2023-05-02T04:35:56.286Z,76.84
2023-05-02T04:38:24.912Z,76.34
2023-05-02T04:40:53.464Z,76.24
2023-05-02T04:43:28.090Z,76.08
2023-05-02T04:46:01.445Z,76.37
2023-05-02T04:48:33.771Z,75.35
2023-05-02T04:51:02.086Z,74.85
2023-05-02T04:53:34.523Z,74.47
2023-05-02T04:56:02.801Z,73.91
2023-05-02T04:58:32.948Z,73.64
2023-05-02T05:01:04.315Z,73.02
2023-05-02T05:03:34.541Z,72.91
2023-05-02T05:06:02.927Z,72.34
2023-05-02T05:08:32.138Z,71.48
2023-05-02T05:11:00.595Z,70.73
2023-05-02T05:13:29.147Z,70.13
2023-05-02T05:15:57.535Z,69.86
2023-05-02T05:18:31.737Z,69.68
2023-05-02T05:21:02.201Z,68.07
2023-05-02T05:23:30.488Z,67.89
2023-05-02T05:25:59.344Z,67.35
2023-05-02T05:28:32.010Z,66.16
2023-05-02T05:31:06.733Z,64.84
2023-05-02T05:33:35.779Z,63.80
2023-05-02T05:36:12.732Z,63.21
2023-05-02T05:38:41.632Z,62.86
2023-05-02T05:41:11.407Z,62.57
2023-05-02T05:43:43.791Z,61.65
2023-05-02T05:46:12.159Z,61.89
2023-05-02T05:48:40.444Z,61.46
2023-05-02T05:51:33.872Z,60.89
2023-05-02T05:54:02.424Z,60.32
2023-05-02T05:56:31.627Z,59.59
2023-05-02T05:59:09.743Z,58.79
2023-05-02T06:01:42.368Z,57.99
2023-05-02T06:04:13.629Z,57.07
2023-05-02T06:07:02.032Z,55.87
2023-05-02T06:09:46.785Z,55.10
2023-05-02T06:12:21.785Z,55.06
2023-05-02T06:14:57.502Z,54.45
2023-05-02T06:17:28.756Z,54.77
2023-05-02T06:20:09.737Z,55.55
2023-05-02T06:22:56.101Z,55.46
2023-05-02T06:25:29.168Z,55.14
2023-05-02T06:28:01.387Z,55.61
2023-05-02T06:30:36.047Z,55.75
2023-05-02T06:33:08.020Z,54.87
2023-05-02T06:35:45.658Z,54.42
2023-05-02T06:38:18.673Z,54.15
2023-05-02T06:40:47.245Z,54.00
2023-05-02T06:43:41.919Z,53.90
2023-05-02T06:46:15.463Z,54.15
2023-05-02T06:48:48.902Z,54.37
2023-05-02T06:51:24.160Z,54.21
2023-05-02T06:53:57.111Z,54.21
2023-05-02T06:56:26.431Z,54.25
2023-05-02T06:58:55.065Z,55.07
2023-05-02T07:01:23.550Z,56.13
2023-05-02T07:04:06.908Z,57.39
2023-05-02T07:06:35.627Z,58.02
2023-05-02T07:09:04.153Z,59.57
2023-05-02T07:11:32.750Z,60.38
2023-05-02T07:14:01.333Z,61.26
2023-05-02T07:16:30.028Z,62.66
2023-05-02T07:19:00.295Z,62.96
2023-05-02T07:21:28.743Z,63.22
2023-05-02T07:23:59.935Z,64.06
2023-05-02T07:26:28.535Z,66.07
2023-05-02T07:28:56.880Z,67.06
2023-05-02T07:31:25.703Z,66.67
2023-05-02T07:33:54.055Z,66.54
2023-05-02T07:36:22.426Z,66.62
2023-05-02T07:38:51.207Z,66.64
2023-05-02T07:41:19.697Z,65.91
2023-05-02T07:43:50.163Z,65.85
2023-05-02T07:46:18.814Z,65.89
2023-05-02T07:48:49.886Z,65.27
2023-05-02T07:51:21.895Z,64.27
2023-05-02T07:54:22.702Z,63.14
2023-05-02T07:56:51.477Z,62.46
2023-05-02T07:59:22.500Z,60.68
2023-05-02T08:01:57.036Z,60.28
2023-05-02T08:04:27.219Z,59.86
2023-05-02T08:07:04.266Z,58.38
2023-05-02T08:09:37.229Z,57.66
2023-05-02T08:12:08.297Z,57.45
2023-05-02T08:14:41.777Z,57.45
2023-05-02T08:17:10.935Z,57.03
2023-05-02T08:19:52.100Z,57.58
2023-05-02T08:22:39.417Z,58.18
2023-05-02T08:25:16.917Z,58.75
2023-05-02T08:27:58.892Z,58.75
2023-05-02T08:30:31.752Z,58.26
2023-05-02T08:33:06.586Z,57.65
2023-05-02T08:35:41.295Z,56.99
2023-05-02T08:38:16.459Z,56.16
2023-05-02T08:40:53.661Z,55.36
2023-05-02T08:43:25.804Z,54.88
2023-05-02T08:45:58.297Z,54.56
2023-05-02T08:48:32.569Z,54.83
2023-05-02T08:51:02.794Z,54.82
2023-05-02T08:53:36.103Z,55.11
2023-05-02T08:56:56.173Z,53.99
2023-05-02T08:59:26.518Z,53.53
2023-05-02T09:02:09.120Z,52.53
2023-05-02T09:04:43.112Z,50.69
2023-05-02T09:07:12.583Z,49.70
2023-05-02T09:09:42.169Z,48.25
2023-05-02T09:12:12.784Z,47.55
2023-05-02T09:14:48.767Z,46.40
2023-05-02T09:17:17.201Z,45.16
2023-05-02T09:19:45.631Z,45.05
2023-05-02T09:22:23.552Z,45.53
2023-05-02T09:24:55.578Z,44.87
2023-05-02T09:27:24.407Z,44.07
2023-05-02T09:29:54.552Z,42.18
2023-05-02T09:32:46.865Z,42.77
2023-05-02T09:35:23.806Z,40.79
2023-05-02T09:38:00.973Z,39.86
2023-05-02T09:40:30.323Z,40.44
2023-05-02T09:43:17.298Z,40.13
2023-05-02T09:45:59.021Z,36.82
2023-05-02T09:48:29.451Z,36.10
2023-05-02T09:50:58.597Z,33.89
2023-05-02T09:53:28.228Z,34.84
2023-05-02T09:56:01.590Z,35.81
2023-05-02T09:58:31.171Z,35.12
2023-05-02T10:01:03.091Z,36.48
2023-05-02T10:03:32.279Z,35.72
2023-05-02T10:06:01.597Z,34.14
2023-05-02T10:08:30.352Z,34.23
2023-05-02T10:11:00.749Z,34.06
2023-05-02T10:13:33.042Z,34.30
2023-05-02T10:16:06.599Z,36.56
2023-05-02T10:18:49.453Z,36.26
2023-05-02T10:21:26.046Z,36.20
2023-05-02T10:23:54.399Z,35.63
2023-05-02T10:26:26.319Z,34.48
2023-05-02T10:28:59.688Z,32.63
2023-05-02T10:31:35.471Z,32.32
2023-05-02T10:34:07.286Z,32.40
2023-05-02T10:36:36.069Z,31.32
2023-05-02T10:39:04.532Z,32.18
2023-05-02T10:41:39.407Z,33.21
2023-05-02T10:44:08.962Z,32.24
2023-05-02T10:46:41.328Z,32.54
2023-05-02T10:49:14.095Z,32.37
2023-05-02T10:51:44.447Z,33.54
2023-05-02T10:54:25.987Z,33.25
2023-05-02T10:57:08.203Z,33.42
2023-05-02T10:59:38.677Z,33.68
2023-05-02T11:02:23.650Z,34.61
2023-05-02T11:05:01.872Z,36.19
2023-05-02T11:07:37.724Z,34.94
2023-05-02T11:10:18.270Z,34.77
2023-05-02T11:12:54.710Z,34.92
2023-05-02T11:15:23.069Z,35.14
2023-05-02T11:18:07.568Z,35.62
2023-05-02T11:20:39.790Z,36.15
2023-05-02T11:23:16.491Z,36.57
2023-05-02T11:25:54.298Z,38.05
2023-05-02T11:28:43.143Z,38.20
2023-05-02T11:31:28.347Z,38.38
2023-05-02T11:33:58.369Z,37.68
2023-05-02T11:36:35.014Z,37.41
2023-05-02T11:39:29.429Z,37.67
2023-05-02T11:42:07.573Z,36.51
2023-05-02T11:44:59.336Z,37.17
2023-05-02T11:47:33.955Z,35.43
2023-05-02T11:50:05.591Z,34.17
2023-05-02T11:52:41.984Z,34.52
2023-05-02T11:55:22.875Z,34.48
2023-05-02T11:57:56.524Z,34.20
2023-05-02T12:00:28.408Z,33.93
2023-05-02T12:02:56.846Z,34.00
2023-05-02T12:05:30.682Z,33.67
2023-05-02T12:08:04.408Z,33.35
2023-05-02T12:10:37.392Z,34.84
2023-05-02T12:13:07.146Z,34.80
2023-05-02T12:15:39.184Z,35.74
2023-05-02T12:18:08.409Z,36.29
2023-05-02T12:20:42.217Z,36.92
2023-05-02T12:23:14.104Z,37.60
2023-05-02T12:25:49.689Z,39.25
2023-05-02T12:28:20.806Z,38.83
2023-05-02T12:30:50.968Z,38.71
2023-05-02T12:33:19.628Z,40.02
2023-05-02T12:35:51.160Z,39.69
2023-05-02T12:38:23.560Z,39.94
2023-05-02T12:40:58.548Z,39.44
2023-05-02T12:43:27.005Z,41.25
2023-05-02T12:46:12.100Z,43.42
2023-05-02T12:48:41.049Z,46.02
2023-05-02T12:51:23.557Z,47.95
2023-05-02T12:53:52.012Z,51.20
2023-05-02T12:56:21.300Z,53.67
2023-05-02T12:58:50.994Z,55.96
2023-05-02T13:01:19.552Z,58.20
2023-05-02T13:03:51.182Z,59.73
2023-05-02T13:06:19.879Z,61.72
2023-05-02T13:09:01.086Z,63.43
2023-05-02T13:11:29.820Z,67.10
2023-05-02T13:14:06.166Z,69.27
2023-05-02T13:16:43.405Z,71.30
2023-05-02T13:19:22.454Z,71.70
2023-05-02T13:22:02.634Z,71.39
2023-05-02T13:24:35.203Z,70.46
2023-05-02T13:27:10.706Z,69.53
2023-05-02T13:29:46.129Z,68.45
2023-05-02T13:32:17.068Z,69.32
2023-05-02T13:34:58.286Z,70.73
2023-05-02T13:37:34.832Z,71.64
2023-05-02T13:40:06.958Z,70.48
2023-05-02T13:42:37.111Z,65.59
2023-05-02T13:45:12.594Z,64.87
2023-05-02T13:47:47.633Z,65.43
2023-05-02T13:50:23.709Z,65.85
2023-05-02T13:53:11.224Z,64.73
2023-05-02T13:59:43.780Z,67.86
2023-05-02T14:02:28.724Z,68.12
2023-05-02T14:05:21.205Z,66.11
2023-05-02T14:08:03.728Z,64.70
2023-05-02T14:10:47.158Z,65.68
2023-05-02T14:13:22.191Z,65.09
2023-05-02T14:16:10.141Z,64.30
2023-05-02T14:18:49.744Z,65.25
2023-05-02T14:22:04.682Z,64.12
2023-05-02T14:25:01.976Z,61.20
2023-05-02T14:27:40.264Z,61.55
2023-05-02T14:32:52.526Z,60.33
2023-05-02T14:35:25.069Z,61.24
2023-05-02T14:38:02.702Z,61.96
2023-05-02T14:40:35.020Z,60.85
2023-05-02T14:43:13.462Z,61.98
2023-05-02T14:45:46.809Z,61.46
2023-05-02T14:48:20.953Z,63.61
2023-05-02T14:50:52.899Z,65.60
2023-05-02T14:55:28.758Z,65.04
2023-05-02T14:58:00.998Z,66.41
2023-05-02T15:00:30.848Z,66.65
2023-05-02T15:03:01.961Z,67.57
2023-05-02T15:05:31.162Z,67.94
2023-05-02T15:08:00.174Z,68.32
2023-05-02T15:10:37.570Z,69.47
2023-05-02T15:13:09.004Z,70.49
2023-05-02T15:15:52.143Z,72.19
2023-05-02T15:18:28.626Z,76.38
2023-05-02T15:21:10.661Z,77.45
2023-05-02T15:23:48.380Z,77.96
2023-05-02T15:26:52.613Z,78.90
2023-05-02T15:29:22.994Z,79.62
2023-05-02T15:31:59.330Z,80.43
2023-05-02T15:34:39.388Z,82.13
2023-05-02T15:37:20.672Z,82.72
2023-05-02T15:40:07.900Z,84.66
2023-05-02T15:43:04.306Z,86.45
2023-05-02T15:45:51.244Z,86.58
2023-05-02T15:48:43.383Z,87.17
2023-05-02T15:52:41.577Z,87.40
2023-05-02T15:55:16.564Z,88.34
2023-05-02T15:59:01.600Z,88.56
2023-05-02T16:01:55.313Z,88.99
2023-05-02T16:04:54.928Z,89.46
2023-05-02T16:07:27.208Z,89.90
2023-05-02T16:10:05.884Z,90.48
2023-05-02T16:12:52.722Z,90.61
2023-05-02T16:15:38.275Z,90.32
2023-05-02T16:18:44.820Z,90.14
2023-05-02T16:21:41.053Z,90.53
2023-05-02T16:24:42.377Z,90.67
2023-05-02T16:34:01.905Z,90.96
2023-05-02T16:37:14.824Z,91.12
2023-05-02T16:40:14.755Z,91.25
2023-05-02T16:43:03.971Z,91.18
2023-05-02T16:46:04.058Z,91.05
2023-05-02T16:48:43.427Z,91.07
2023-05-02T16:51:15.844Z,91.28
2023-05-02T16:53:48.623Z,91.51
2023-05-02T16:56:24.699Z,92.19
2023-05-02T16:58:56.969Z,92.62
2023-05-02T17:01:50.936Z,92.98
2023-05-02T17:04:29.720Z,93.50
2023-05-02T17:07:21.151Z,93.91
2023-05-02T17:10:11.086Z,94.35
2023-05-02T17:13:09.856Z,94.76
2023-05-02T17:15:59.039Z,95.09
2023-05-02T17:18:36.675Z,95.27
2023-05-02T17:21:14.227Z,95.50
2023-05-02T17:23:58.773Z,96.19
2023-05-02T17:26:42.183Z,97.92
2023-05-02T17:29:23.178Z,99.79
2023-05-02T17:32:00.150Z,100.00
2023-05-02T17:34:36.915Z,100.00
2023-05-02T17:37:07.819Z,100.00
2023-05-02T17:39:36.734Z,100.00
2023-05-02T17:42:13.868Z,100.00
2023-05-02T17:45:42.079Z,100.00
2023-05-02T17:48:13.518Z,100.00
2023-05-02T17:50:42.646Z,100.00
2023-05-02T17:53:15.848Z,100.00
2023-05-02T17:55:47.679Z,100.00
2023-05-02T17:58:25.109Z,100.00
2023-05-02T18:01:14.421Z,100.00
2023-05-02T18:03:44.826Z,100.00
2023-05-02T18:06:20.107Z,100.00
2023-05-02T18:08:48.786Z,100.00
2023-05-02T18:11:18.987Z,100.00
2023-05-02T18:13:50.048Z,100.00
2023-05-02T18:16:21.492Z,100.00
2023-05-02T18:18:50.049Z,100.00
2023-05-02T18:21:45.019Z,100.00
2023-05-02T18:24:13.753Z,100.00
2023-05-02T18:26:42.211Z,100.00
2023-05-02T18:29:12.463Z,100.00
2023-05-02T18:31:42.372Z,100.00
2023-05-02T18:34:11.300Z,100.00
2023-05-02T18:36:39.699Z,100.00
2023-05-02T18:39:08.183Z,100.00
2023-05-02T18:41:39.753Z,100.00
2023-05-02T18:44:10.196Z,100.00
2023-05-02T18:46:38.713Z,100.00
2023-05-02T18:49:09.291Z,100.00
2023-05-02T18:51:37.551Z,100.00
2023-05-02T18:54:06.094Z,100.00
2023-05-02T18:56:34.380Z,100.00
2023-05-02T18:59:02.645Z,100.00
2023-05-02T19:01:31.191Z,100.00
2023-05-02T19:04:01.242Z,100.00
2023-05-02T19:06:32.025Z,100.00
2023-05-02T19:09:00.844Z,100.00
2023-05-02T19:11:29.305Z,100.00
2023-05-02T19:14:00.229Z,100.00
2023-05-02T19:16:29.744Z,100.00
2023-05-02T19:18:58.365Z,100.00
2023-05-02T19:21:27.464Z,100.00
2023-05-02T19:23:56.856Z,100.00
2023-05-02T19:26:25.946Z,100.00
2023-05-02T19:28:55.963Z,100.00
2023-05-02T19:31:24.349Z,100.00
2023-05-02T19:33:53.156Z,100.00
2023-05-02T19:36:27.453Z,100.00
2023-05-02T19:38:58.301Z,100.00
2023-05-02T19:41:26.870Z,100.00
2023-05-02T19:43:57.027Z,100.00
2023-05-02T19:46:25.545Z,100.00
2023-05-02T19:48:53.810Z,100.00
2023-05-02T19:51:25.842Z,100.00
2023-05-02T19:53:54.430Z,100.00
2023-05-02T19:56:25.550Z,100.00
2023-05-02T19:58:54.075Z,100.00
2023-05-02T20:01:22.804Z,100.00
2023-05-02T20:03:51.328Z,100.00
2023-05-02T20:06:19.788Z,100.00
2023-05-02T20:08:51.102Z,100.00
2023-05-02T20:11:19.338Z,100.00
2023-05-02T20:13:47.641Z,100.00
2023-05-02T20:16:16.094Z,100.00
2023-05-02T20:22:55.346Z,100.00
2023-05-02T20:25:24.776Z,100.00
2023-05-02T20:27:53.432Z,100.00
2023-05-02T20:30:21.990Z,100.00
2023-05-02T20:32:50.351Z,100.00
2023-05-02T20:35:19.240Z,100.00
2023-05-02T20:37:48.721Z,100.00
2023-05-02T20:40:17.046Z,100.00
2023-05-02T20:42:45.283Z,100.00
2023-05-02T20:45:15.048Z,100.00
2023-05-02T20:47:43.281Z,100.00
2023-05-02T20:50:11.692Z,100.00
2023-05-02T20:52:40.128Z,100.00
2023-05-02T20:55:09.178Z,100.00
2023-05-02T20:57:37.542Z,100.00
2023-05-02T21:00:06.545Z,100.00
2023-05-02T21:02:34.958Z,100.00
2023-05-02T21:05:03.562Z,100.00
2023-05-02T21:07:31.860Z,100.00
2023-05-02T21:10:02.755Z,100.00
2023-05-02T21:12:32.728Z,100.00
2023-05-02T21:15:00.966Z,100.00
2023-05-02T21:17:29.294Z,100.00
2023-05-02T21:20:00.148Z,100.00
2023-05-02T21:22:34.848Z,100.00
2023-05-02T21:25:03.844Z,100.00
2023-05-02T21:27:32.165Z,100.00
2023-05-02T21:30:03.052Z,100.00
2023-05-02T21:32:31.858Z,100.00
2023-05-02T21:35:01.019Z,100.00
2023-05-02T21:37:32.726Z,100.00
2023-05-02T21:40:01.190Z,100.00
2023-05-02T21:42:30.139Z,100.00
2023-05-02T21:44:58.595Z,100.00
2023-05-02T21:47:27.054Z,100.00
2023-05-02T21:49:56.249Z,100.00
2023-05-02T21:52:24.582Z,100.00
2023-05-02T21:54:53.118Z,100.00
2023-05-02T21:57:21.526Z,100.00
2023-05-02T21:59:49.775Z,100.00
2023-05-02T22:02:18.227Z,100.00
2023-05-02T22:04:48.398Z,100.00
2023-05-02T22:07:17.013Z,100.00
2023-05-02T22:09:45.499Z,100.00
2023-05-02T22:12:13.908Z,100.00
2023-05-02T22:14:46.082Z,100.00
2023-05-02T22:17:18.454Z,100.00
2023-05-02T22:19:52.669Z,100.00
2023-05-02T22:22:21.125Z,100.00
2023-05-02T22:24:49.368Z,100.00
2023-05-02T22:27:17.633Z,100.00
2023-05-02T22:29:45.969Z,100.00
2023-05-02T22:32:14.284Z,100.00
2023-05-02T22:34:42.660Z,100.00
2023-05-02T22:37:11.089Z,100.00
2023-05-02T22:39:39.661Z,100.00
2023-05-02T22:42:08.076Z,100.00
2023-05-02T22:44:50.713Z,100.00
2023-05-02T22:47:22.952Z,100.00
2023-05-02T22:49:52.691Z,100.00
2023-05-02T22:52:21.256Z,100.00
2023-05-02T22:54:49.481Z,100.00
2023-05-02T22:57:43.815Z,100.00
2023-05-02T23:00:12.491Z,100.00
2023-05-02T23:02:40.990Z,100.00
2023-05-02T23:05:09.637Z,100.00
2023-05-02T23:07:37.942Z,100.00
2023-05-02T23:10:07.038Z,100.00
2023-05-02T23:12:35.263Z,100.00
2023-05-02T23:15:03.787Z,100.00
2023-05-02T23:17:32.247Z,100.00
2023-05-02T23:20:00.807Z,100.00
2023-05-02T23:22:31.137Z,100.00
2023-05-02T23:25:00.696Z,100.00
2023-05-02T23:27:29.097Z,100.00
2023-05-02T23:29:57.742Z,100.00
2023-05-02T23:32:26.194Z,100.00
2023-05-02T23:34:55.878Z,100.00
2023-05-02T23:37:24.208Z,100.00
2023-05-02T23:39:52.569Z,100.00
2023-05-02T23:42:20.932Z,100.00
2023-05-02T23:44:49.636Z,100.00
2023-05-02T23:47:18.063Z,100.00
2023-05-02T23:49:46.302Z,100.00
2023-05-02T23:52:14.608Z,100.00
2023-05-02T23:54:42.919Z,100.00
2023-05-02T23:57:12.076Z,100.00
2023-05-02T23:59:40.421Z,100.00
